sensor_id;sensor_type;location;lat;lon;timestamp;temperature;humidity
13808;DHT22;40769;51.512;5.494;2023-07-13T00:00:26;18.20;99.90
13808;DHT22;40769;51.512;5.494;2023-07-13T00:02:52;18.10;99.90
13808;DHT22;40769;51.512;5.494;2023-07-13T00:05:22;18.10;99.90
13808;DHT22;40769;51.512;5.494;2023-07-13T00:07:49;18.10;99.90
13808;DHT22;40769;51.512;5.494;2023-07-13T00:10:14;18.10;99.90
13808;DHT22;40769;51.512;5.494;2023-07-13T00:12:40;18.10;99.90
13808;DHT22;40769;51.512;5.494;2023-07-13T00:15:15;18.00;99.90
13808;DHT22;40769;51.512;5.494;2023-07-13T00:17:42;18.00;99.90
13808;DHT22;40769;51.512;5.494;2023-07-13T00:20:10;18.00;99.90
13808;DHT22;40769;51.512;5.494;2023-07-13T00:22:37;17.90;99.90
13808;DHT22;40769;51.512;5.494;2023-07-13T00:25:05;17.90;99.90
13808;DHT22;40769;51.512;5.494;2023-07-13T00:27:31;17.90;99.90
13808;DHT22;40769;51.512;5.494;2023-07-13T00:29:58;17.90;99.90
13808;DHT22;40769;51.512;5.494;2023-07-13T00:32:24;17.90;99.90
13808;DHT22;40769;51.512;5.494;2023-07-13T00:34:51;17.90;99.90
13808;DHT22;40769;51.512;5.494;2023-07-13T00:37:17;17.80;99.90
13808;DHT22;40769;51.512;5.494;2023-07-13T00:39:43;17.80;99.90
13808;DHT22;40769;51.512;5.494;2023-07-13T00:42:09;17.80;99.90
13808;DHT22;40769;51.512;5.494;2023-07-13T00:44:35;17.80;99.90
13808;DHT22;40769;51.512;5.494;2023-07-13T00:47:01;17.80;99.90
13808;DHT22;40769;51.512;5.494;2023-07-13T00:49:29;17.80;99.90
13808;DHT22;40769;51.512;5.494;2023-07-13T00:52:05;17.80;99.90
13808;DHT22;40769;51.512;5.494;2023-07-13T00:54:38;17.80;99.90
13808;DHT22;40769;51.512;5.494;2023-07-13T00:57:08;17.70;99.90
13808;DHT22;40769;51.512;5.494;2023-07-13T00:59:35;17.80;99.90
13808;DHT22;40769;51.512;5.494;2023-07-13T01:02:03;17.70;99.90
13808;DHT22;40769;51.512;5.494;2023-07-13T01:04:29;17.70;99.90
13808;DHT22;40769;51.512;5.494;2023-07-13T01:06:56;17.70;99.90
13808;DHT22;40769;51.512;5.494;2023-07-13T01:09:22;16.20;99.90
13808;DHT22;40769;51.512;5.494;2023-07-13T01:11:48;17.60;99.90
13808;DHT22;40769;51.512;5.494;2023-07-13T01:14:15;17.60;99.90
13808;DHT22;40769;51.512;5.494;2023-07-13T01:16:44;17.60;99.90
13808;DHT22;40769;51.512;5.494;2023-07-13T01:22:15;17.60;99.90
13808;DHT22;40769;51.512;5.494;2023-07-13T01:24:43;17.60;99.90
13808;DHT22;40769;51.512;5.494;2023-07-13T01:27:12;17.60;99.90
13808;DHT22;40769;51.512;5.494;2023-07-13T01:29:40;17.60;99.90
13808;DHT22;40769;51.512;5.494;2023-07-13T01:32:15;17.60;99.90
13808;DHT22;40769;51.512;5.494;2023-07-13T01:34:41;17.60;99.90
13808;DHT22;40769;51.512;5.494;2023-07-13T01:37:08;17.50;99.90
13808;DHT22;40769;51.512;5.494;2023-07-13T01:39:35;18.10;99.90
13808;DHT22;40769;51.512;5.494;2023-07-13T01:42:01;17.60;99.90
13808;DHT22;40769;51.512;5.494;2023-07-13T01:44:27;17.60;99.90
13808;DHT22;40769;51.512;5.494;2023-07-13T01:46:53;17.60;99.90
13808;DHT22;40769;51.512;5.494;2023-07-13T01:49:19;17.60;99.90
13808;DHT22;40769;51.512;5.494;2023-07-13T01:51:45;17.60;99.90
13808;DHT22;40769;51.512;5.494;2023-07-13T01:54:10;17.60;99.90
13808;DHT22;40769;51.512;5.494;2023-07-13T01:56:36;17.40;99.90
13808;DHT22;40769;51.512;5.494;2023-07-13T01:59:02;17.60;99.90
13808;DHT22;40769;51.512;5.494;2023-07-13T02:01:28;17.60;99.90
13808;DHT22;40769;51.512;5.494;2023-07-13T02:03:54;17.50;99.90
13808;DHT22;40769;51.512;5.494;2023-07-13T02:06:19;17.50;99.90
13808;DHT22;40769;51.512;5.494;2023-07-13T02:08:45;17.50;99.90
13808;DHT22;40769;51.512;5.494;2023-07-13T02:11:11;17.40;99.90
13808;DHT22;40769;51.512;5.494;2023-07-13T02:13:36;17.40;99.90
13808;DHT22;40769;51.512;5.494;2023-07-13T02:16:05;17.30;99.90
13808;DHT22;40769;51.512;5.494;2023-07-13T02:18:32;17.40;99.90
13808;DHT22;40769;51.512;5.494;2023-07-13T02:20:57;17.40;99.90
13808;DHT22;40769;51.512;5.494;2023-07-13T02:23:23;17.30;99.90
13808;DHT22;40769;51.512;5.494;2023-07-13T02:25:49;17.30;99.90
13808;DHT22;40769;51.512;5.494;2023-07-13T02:28:15;17.30;99.90
13808;DHT22;40769;51.512;5.494;2023-07-13T02:30:40;17.30;99.90
13808;DHT22;40769;51.512;5.494;2023-07-13T02:33:06;17.30;99.90
13808;DHT22;40769;51.512;5.494;2023-07-13T02:35:32;17.30;99.90
13808;DHT22;40769;51.512;5.494;2023-07-13T02:37:57;17.30;99.90
13808;DHT22;40769;51.512;5.494;2023-07-13T02:40:23;17.20;99.90
13808;DHT22;40769;51.512;5.494;2023-07-13T02:42:49;17.20;99.90
13808;DHT22;40769;51.512;5.494;2023-07-13T02:45:14;17.10;99.90
13808;DHT22;40769;51.512;5.494;2023-07-13T02:47:41;17.20;99.90
13808;DHT22;40769;51.512;5.494;2023-07-13T02:50:08;17.20;99.90
13808;DHT22;40769;51.512;5.494;2023-07-13T02:52:34;17.10;99.90
13808;DHT22;40769;51.512;5.494;2023-07-13T02:55:00;17.10;99.90
13808;DHT22;40769;51.512;5.494;2023-07-13T02:57:25;17.10;99.90
13808;DHT22;40769;51.512;5.494;2023-07-13T02:59:52;17.10;99.90
13808;DHT22;40769;51.512;5.494;2023-07-13T03:02:18;17.10;99.90
13808;DHT22;40769;51.512;5.494;2023-07-13T03:04:43;17.10;99.90
13808;DHT22;40769;51.512;5.494;2023-07-13T03:07:09;17.10;99.90
13808;DHT22;40769;51.512;5.494;2023-07-13T03:09:35;17.00;99.90
13808;DHT22;40769;51.512;5.494;2023-07-13T03:12:01;17.00;99.90
13808;DHT22;40769;51.512;5.494;2023-07-13T03:14:28;17.00;99.90
13808;DHT22;40769;51.512;5.494;2023-07-13T03:16:53;16.90;99.90
13808;DHT22;40769;51.512;5.494;2023-07-13T03:19:19;16.90;99.90
13808;DHT22;40769;51.512;5.494;2023-07-13T03:21:46;16.90;99.90
13808;DHT22;40769;51.512;5.494;2023-07-13T03:24:11;16.90;99.90
13808;DHT22;40769;51.512;5.494;2023-07-13T03:26:38;16.90;99.90
13808;DHT22;40769;51.512;5.494;2023-07-13T03:29:04;16.90;99.90
13808;DHT22;40769;51.512;5.494;2023-07-13T03:31:33;16.90;99.90
13808;DHT22;40769;51.512;5.494;2023-07-13T03:33:59;16.90;99.90
13808;DHT22;40769;51.512;5.494;2023-07-13T03:36:27;16.90;99.90
13808;DHT22;40769;51.512;5.494;2023-07-13T03:38:55;16.90;99.90
13808;DHT22;40769;51.512;5.494;2023-07-13T03:41:23;16.80;99.90
13808;DHT22;40769;51.512;5.494;2023-07-13T03:43:49;16.80;99.90
13808;DHT22;40769;51.512;5.494;2023-07-13T03:46:15;17.20;99.90
13808;DHT22;40769;51.512;5.494;2023-07-13T03:48:43;16.80;99.90
13808;DHT22;40769;51.512;5.494;2023-07-13T03:51:11;16.80;99.90
13808;DHT22;40769;51.512;5.494;2023-07-13T03:53:39;16.80;99.90
13808;DHT22;40769;51.512;5.494;2023-07-13T03:56:06;16.80;99.90
13808;DHT22;40769;51.512;5.494;2023-07-13T03:58:38;16.80;99.90
13808;DHT22;40769;51.512;5.494;2023-07-13T04:01:05;16.80;99.90
13808;DHT22;40769;51.512;5.494;2023-07-13T04:03:32;16.80;99.90
13808;DHT22;40769;51.512;5.494;2023-07-13T04:06:04;16.80;99.90
13808;DHT22;40769;51.512;5.494;2023-07-13T04:08:34;16.80;99.90
13808;DHT22;40769;51.512;5.494;2023-07-13T04:11:00;16.80;99.90
13808;DHT22;40769;51.512;5.494;2023-07-13T04:13:26;16.80;99.90
13808;DHT22;40769;51.512;5.494;2023-07-13T04:15:53;16.90;99.90
13808;DHT22;40769;51.512;5.494;2023-07-13T04:18:19;16.90;99.90
13808;DHT22;40769;51.512;5.494;2023-07-13T04:20:48;16.90;99.90
13808;DHT22;40769;51.512;5.494;2023-07-13T04:23:15;16.90;99.90
13808;DHT22;40769;51.512;5.494;2023-07-13T04:25:48;17.00;99.90
13808;DHT22;40769;51.512;5.494;2023-07-13T04:28:15;17.10;99.90
13808;DHT22;40769;51.512;5.494;2023-07-13T04:30:42;17.20;99.90
13808;DHT22;40769;51.512;5.494;2023-07-13T04:33:08;17.30;99.90
13808;DHT22;40769;51.512;5.494;2023-07-13T04:35:34;17.40;99.90
13808;DHT22;40769;51.512;5.494;2023-07-13T04:38:00;17.50;99.90
13808;DHT22;40769;51.512;5.494;2023-07-13T04:40:27;17.60;99.90
13808;DHT22;40769;51.512;5.494;2023-07-13T04:42:53;17.60;99.90
13808;DHT22;40769;51.512;5.494;2023-07-13T04:45:19;17.70;99.90
13808;DHT22;40769;51.512;5.494;2023-07-13T04:47:46;17.80;99.90
13808;DHT22;40769;51.512;5.494;2023-07-13T04:50:13;17.90;99.90
13808;DHT22;40769;51.512;5.494;2023-07-13T04:52:46;17.90;99.90
13808;DHT22;40769;51.512;5.494;2023-07-13T04:55:12;18.00;99.90
13808;DHT22;40769;51.512;5.494;2023-07-13T04:57:38;18.10;99.90
13808;DHT22;40769;51.512;5.494;2023-07-13T05:00:04;18.10;99.90
13808;DHT22;40769;51.512;5.494;2023-07-13T05:02:30;18.20;99.90
13808;DHT22;40769;51.512;5.494;2023-07-13T05:04:57;18.30;99.90
13808;DHT22;40769;51.512;5.494;2023-07-13T05:07:23;18.30;99.90
13808;DHT22;40769;51.512;5.494;2023-07-13T05:09:48;18.40;99.90
13808;DHT22;40769;51.512;5.494;2023-07-13T05:12:14;18.50;99.90
13808;DHT22;40769;51.512;5.494;2023-07-13T05:14:40;18.50;99.90
13808;DHT22;40769;51.512;5.494;2023-07-13T05:17:05;18.60;99.90
13808;DHT22;40769;51.512;5.494;2023-07-13T05:19:32;18.70;99.90
13808;DHT22;40769;51.512;5.494;2023-07-13T05:21:57;18.80;99.90
13808;DHT22;40769;51.512;5.494;2023-07-13T05:24:23;18.80;99.90
13808;DHT22;40769;51.512;5.494;2023-07-13T05:26:49;18.90;99.90
13808;DHT22;40769;51.512;5.494;2023-07-13T05:29:15;18.90;99.90
13808;DHT22;40769;51.512;5.494;2023-07-13T05:31:40;19.00;99.90
13808;DHT22;40769;51.512;5.494;2023-07-13T05:34:06;19.00;99.90
13808;DHT22;40769;51.512;5.494;2023-07-13T05:36:32;19.10;99.90
13808;DHT22;40769;51.512;5.494;2023-07-13T05:38:58;19.20;99.90
13808;DHT22;40769;51.512;5.494;2023-07-13T05:41:23;19.20;99.90
13808;DHT22;40769;51.512;5.494;2023-07-13T05:43:49;19.20;99.90
13808;DHT22;40769;51.512;5.494;2023-07-13T05:46:15;19.30;99.90
13808;DHT22;40769;51.512;5.494;2023-07-13T05:48:41;19.30;99.90
13808;DHT22;40769;51.512;5.494;2023-07-13T05:51:06;19.40;99.90
13808;DHT22;40769;51.512;5.494;2023-07-13T05:53:34;19.40;99.90
13808;DHT22;40769;51.512;5.494;2023-07-13T05:56:00;19.50;99.90
13808;DHT22;40769;51.512;5.494;2023-07-13T05:58:26;19.50;99.90
13808;DHT22;40769;51.512;5.494;2023-07-13T06:01:00;19.60;99.90
13808;DHT22;40769;51.512;5.494;2023-07-13T06:03:26;19.60;99.90
13808;DHT22;40769;51.512;5.494;2023-07-13T06:05:51;19.60;99.90
13808;DHT22;40769;51.512;5.494;2023-07-13T06:08:19;19.70;99.90
13808;DHT22;40769;51.512;5.494;2023-07-13T06:10:45;19.70;99.90
13808;DHT22;40769;51.512;5.494;2023-07-13T06:13:10;19.80;99.90
13808;DHT22;40769;51.512;5.494;2023-07-13T06:15:36;19.90;99.90
13808;DHT22;40769;51.512;5.494;2023-07-13T06:18:02;20.00;99.90
13808;DHT22;40769;51.512;5.494;2023-07-13T06:20:28;20.10;99.90
13808;DHT22;40769;51.512;5.494;2023-07-13T06:22:54;20.20;99.90
13808;DHT22;40769;51.512;5.494;2023-07-13T06:25:20;21.00;99.90
13808;DHT22;40769;51.512;5.494;2023-07-13T06:27:46;20.40;99.90
13808;DHT22;40769;51.512;5.494;2023-07-13T06:30:12;20.50;99.90
13808;DHT22;40769;51.512;5.494;2023-07-13T06:32:38;20.60;99.90
13808;DHT22;40769;51.512;5.494;2023-07-13T06:35:04;20.70;99.90
13808;DHT22;40769;51.512;5.494;2023-07-13T06:37:33;20.70;99.90
13808;DHT22;40769;51.512;5.494;2023-07-13T06:39:58;20.80;99.90
13808;DHT22;40769;51.512;5.494;2023-07-13T06:42:24;20.80;99.90
13808;DHT22;40769;51.512;5.494;2023-07-13T06:44:50;20.90;99.90
13808;DHT22;40769;51.512;5.494;2023-07-13T06:47:22;21.00;99.90
13808;DHT22;40769;51.512;5.494;2023-07-13T06:49:48;21.10;99.90
13808;DHT22;40769;51.512;5.494;2023-07-13T06:52:13;21.10;99.90
13808;DHT22;40769;51.512;5.494;2023-07-13T06:54:39;21.10;99.90
13808;DHT22;40769;51.512;5.494;2023-07-13T06:57:05;21.10;99.90
13808;DHT22;40769;51.512;5.494;2023-07-13T06:59:30;21.10;99.90
13808;DHT22;40769;51.512;5.494;2023-07-13T07:01:56;21.10;99.90
13808;DHT22;40769;51.512;5.494;2023-07-13T07:04:22;21.20;99.90
13808;DHT22;40769;51.512;5.494;2023-07-13T07:06:47;21.20;99.90
13808;DHT22;40769;51.512;5.494;2023-07-13T07:09:13;21.30;99.90
13808;DHT22;40769;51.512;5.494;2023-07-13T07:11:40;21.30;99.90
13808;DHT22;40769;51.512;5.494;2023-07-13T07:14:05;21.40;99.90
13808;DHT22;40769;51.512;5.494;2023-07-13T07:16:31;21.40;99.90
13808;DHT22;40769;51.512;5.494;2023-07-13T07:18:57;21.50;99.90
13808;DHT22;40769;51.512;5.494;2023-07-13T07:21:22;21.50;99.90
13808;DHT22;40769;51.512;5.494;2023-07-13T07:23:49;21.60;99.90
13808;DHT22;40769;51.512;5.494;2023-07-13T07:26:15;21.70;99.90
13808;DHT22;40769;51.512;5.494;2023-07-13T07:28:41;21.70;99.90
13808;DHT22;40769;51.512;5.494;2023-07-13T07:31:07;21.80;99.90
13808;DHT22;40769;51.512;5.494;2023-07-13T07:33:33;21.80;99.90
13808;DHT22;40769;51.512;5.494;2023-07-13T07:36:00;21.90;99.90
13808;DHT22;40769;51.512;5.494;2023-07-13T07:38:29;21.90;99.90
13808;DHT22;40769;51.512;5.494;2023-07-13T07:40:55;22.00;99.90
13808;DHT22;40769;51.512;5.494;2023-07-13T07:43:20;22.10;99.90
13808;DHT22;40769;51.512;5.494;2023-07-13T07:45:46;22.20;99.90
13808;DHT22;40769;51.512;5.494;2023-07-13T07:48:12;22.30;99.90
13808;DHT22;40769;51.512;5.494;2023-07-13T07:50:38;22.40;99.90
13808;DHT22;40769;51.512;5.494;2023-07-13T07:53:05;22.60;99.90
13808;DHT22;40769;51.512;5.494;2023-07-13T07:55:34;22.80;99.90
13808;DHT22;40769;51.512;5.494;2023-07-13T07:58:01;22.90;99.90
13808;DHT22;40769;51.512;5.494;2023-07-13T08:00:26;23.00;99.90
13808;DHT22;40769;51.512;5.494;2023-07-13T08:02:54;23.20;99.90
13808;DHT22;40769;51.512;5.494;2023-07-13T08:05:20;23.30;99.90
13808;DHT22;40769;51.512;5.494;2023-07-13T08:07:46;23.50;99.90
13808;DHT22;40769;51.512;5.494;2023-07-13T08:10:12;23.70;99.90
13808;DHT22;40769;51.512;5.494;2023-07-13T08:12:38;23.90;99.90
13808;DHT22;40769;51.512;5.494;2023-07-13T08:15:06;24.10;99.90
13808;DHT22;40769;51.512;5.494;2023-07-13T08:17:32;24.30;99.90
13808;DHT22;40769;51.512;5.494;2023-07-13T08:19:57;24.50;99.90
13808;DHT22;40769;51.512;5.494;2023-07-13T08:22:23;24.70;99.90
13808;DHT22;40769;51.512;5.494;2023-07-13T08:24:49;24.90;99.90
13808;DHT22;40769;51.512;5.494;2023-07-13T08:27:21;25.10;99.90
13808;DHT22;40769;51.512;5.494;2023-07-13T08:29:48;25.30;99.90
13808;DHT22;40769;51.512;5.494;2023-07-13T08:32:14;25.60;99.90
13808;DHT22;40769;51.512;5.494;2023-07-13T08:34:40;25.80;99.90
13808;DHT22;40769;51.512;5.494;2023-07-13T08:37:06;25.90;99.90
13808;DHT22;40769;51.512;5.494;2023-07-13T08:39:33;26.00;99.90
13808;DHT22;40769;51.512;5.494;2023-07-13T08:42:04;26.20;99.90
13808;DHT22;40769;51.512;5.494;2023-07-13T08:44:44;26.30;99.90
13808;DHT22;40769;51.512;5.494;2023-07-13T08:47:16;26.40;99.90
13808;DHT22;40769;51.512;5.494;2023-07-13T08:49:43;26.50;99.90
13808;DHT22;40769;51.512;5.494;2023-07-13T08:52:34;26.50;99.90
13808;DHT22;40769;51.512;5.494;2023-07-13T08:55:13;26.50;99.90
13808;DHT22;40769;51.512;5.494;2023-07-13T08:57:42;26.60;99.90
13808;DHT22;40769;51.512;5.494;2023-07-13T09:00:12;26.80;99.90
13808;DHT22;40769;51.512;5.494;2023-07-13T09:02:52;27.00;99.90
13808;DHT22;40769;51.512;5.494;2023-07-13T09:05:33;27.20;99.90
13808;DHT22;40769;51.512;5.494;2023-07-13T09:11:56;27.60;99.90
13808;DHT22;40769;51.512;5.494;2023-07-13T09:14:34;27.80;99.90
13808;DHT22;40769;51.512;5.494;2023-07-13T09:17:08;27.90;99.90
13808;DHT22;40769;51.512;5.494;2023-07-13T09:19:36;28.00;99.90
13808;DHT22;40769;51.512;5.494;2023-07-13T09:22:09;28.00;99.90
13808;DHT22;40769;51.512;5.494;2023-07-13T09:24:59;28.00;99.90
13808;DHT22;40769;51.512;5.494;2023-07-13T09:27:36;28.10;99.90
13808;DHT22;40769;51.512;5.494;2023-07-13T09:32:42;28.40;99.90
13808;DHT22;40769;51.512;5.494;2023-07-13T09:35:14;28.40;99.90
13808;DHT22;40769;51.512;5.494;2023-07-13T09:37:44;28.40;99.90
13808;DHT22;40769;51.512;5.494;2023-07-13T09:40:28;28.40;99.90
13808;DHT22;40769;51.512;5.494;2023-07-13T09:42:54;28.50;99.90
13808;DHT22;40769;51.512;5.494;2023-07-13T09:45:30;28.50;99.90
13808;DHT22;40769;51.512;5.494;2023-07-13T09:48:16;28.60;99.90
13808;DHT22;40769;51.512;5.494;2023-07-13T09:50:43;28.70;99.90
13808;DHT22;40769;51.512;5.494;2023-07-13T09:53:19;28.70;99.90
13808;DHT22;40769;51.512;5.494;2023-07-13T09:55:48;28.70;99.90
13808;DHT22;40769;51.512;5.494;2023-07-13T09:58:30;28.60;99.90
13808;DHT22;40769;51.512;5.494;2023-07-13T10:01:00;28.60;99.90
13808;DHT22;40769;51.512;5.494;2023-07-13T10:03:36;28.50;99.90
13808;DHT22;40769;51.512;5.494;2023-07-13T10:08:37;28.60;99.90
13808;DHT22;40769;51.512;5.494;2023-07-13T10:11:11;28.60;99.90
13808;DHT22;40769;51.512;5.494;2023-07-13T10:13:42;28.60;99.90
13808;DHT22;40769;51.512;5.494;2023-07-13T10:16:09;28.50;99.90
13808;DHT22;40769;51.512;5.494;2023-07-13T10:18:55;28.40;99.90
13808;DHT22;40769;51.512;5.494;2023-07-13T10:21:22;28.40;99.90
13808;DHT22;40769;51.512;5.494;2023-07-13T10:24:10;28.30;99.90
13808;DHT22;40769;51.512;5.494;2023-07-13T10:26:41;28.30;99.90
13808;DHT22;40769;51.512;5.494;2023-07-13T10:29:11;28.40;99.90
13808;DHT22;40769;51.512;5.494;2023-07-13T10:31:40;28.50;99.90
13808;DHT22;40769;51.512;5.494;2023-07-13T10:34:10;28.60;99.90
13808;DHT22;40769;51.512;5.494;2023-07-13T10:36:45;28.70;99.90
13808;DHT22;40769;51.512;5.494;2023-07-13T10:39:30;28.80;99.90
13808;DHT22;40769;51.512;5.494;2023-07-13T10:42:00;28.80;99.90
13808;DHT22;40769;51.512;5.494;2023-07-13T10:44:30;28.90;99.90
13808;DHT22;40769;51.512;5.494;2023-07-13T10:47:07;28.80;99.90
13808;DHT22;40769;51.512;5.494;2023-07-13T10:49:35;28.70;99.90
13808;DHT22;40769;51.512;5.494;2023-07-13T10:52:02;28.60;99.90
13808;DHT22;40769;51.512;5.494;2023-07-13T10:57:16;28.20;99.90
13808;DHT22;40769;51.512;5.494;2023-07-13T10:59:47;27.50;99.90
13808;DHT22;40769;51.512;5.494;2023-07-13T11:02:27;26.60;99.90
13808;DHT22;40769;51.512;5.494;2023-07-13T11:04:55;25.50;99.90
13808;DHT22;40769;51.512;5.494;2023-07-13T11:07:31;24.60;99.90
13808;DHT22;40769;51.512;5.494;2023-07-13T11:16:37;22.70;99.90
13808;DHT22;40769;51.512;5.494;2023-07-13T11:21:32;22.30;99.90
13808;DHT22;40769;51.512;5.494;2023-07-13T11:24:13;22.20;99.90
13808;DHT22;40769;51.512;5.494;2023-07-13T11:26:50;22.30;99.90
13808;DHT22;40769;51.512;5.494;2023-07-13T11:29:27;22.50;99.90
13808;DHT22;40769;51.512;5.494;2023-07-13T11:32:00;22.70;99.90
13808;DHT22;40769;51.512;5.494;2023-07-13T11:34:38;22.80;99.90
13808;DHT22;40769;51.512;5.494;2023-07-13T11:37:12;22.90;99.90
13808;DHT22;40769;51.512;5.494;2023-07-13T11:39:42;22.90;99.90
13808;DHT22;40769;51.512;5.494;2023-07-13T11:42:13;22.90;99.90
13808;DHT22;40769;51.512;5.494;2023-07-13T11:44:44;22.90;99.90
13808;DHT22;40769;51.512;5.494;2023-07-13T11:47:18;22.80;99.90
13808;DHT22;40769;51.512;5.494;2023-07-13T11:49:55;22.90;99.90
13808;DHT22;40769;51.512;5.494;2023-07-13T11:52:36;23.10;99.90
13808;DHT22;40769;51.512;5.494;2023-07-13T11:55:16;23.40;99.90
13808;DHT22;40769;51.512;5.494;2023-07-13T11:57:49;23.70;99.90
13808;DHT22;40769;51.512;5.494;2023-07-13T12:00:22;24.00;99.90
13808;DHT22;40769;51.512;5.494;2023-07-13T12:02:51;24.20;99.90
13808;DHT22;40769;51.512;5.494;2023-07-13T12:05:19;24.30;99.90
13808;DHT22;40769;51.512;5.494;2023-07-13T12:07:46;24.40;99.90
13808;DHT22;40769;51.512;5.494;2023-07-13T12:10:22;24.40;99.90
13808;DHT22;40769;51.512;5.494;2023-07-13T12:13:00;24.50;99.90
13808;DHT22;40769;51.512;5.494;2023-07-13T12:15:58;24.50;99.90
13808;DHT22;40769;51.512;5.494;2023-07-13T12:18:32;24.50;99.90
13808;DHT22;40769;51.512;5.494;2023-07-13T12:20:59;24.50;99.90
13808;DHT22;40769;51.512;5.494;2023-07-13T12:25:54;24.70;99.90
13808;DHT22;40769;51.512;5.494;2023-07-13T12:28:36;24.90;99.90
13808;DHT22;40769;51.512;5.494;2023-07-13T12:31:05;25.30;99.90
13808;DHT22;40769;51.512;5.494;2023-07-13T12:33:33;25.60;99.90
13808;DHT22;40769;51.512;5.494;2023-07-13T12:36:06;25.90;99.90
13808;DHT22;40769;51.512;5.494;2023-07-13T12:38:32;26.10;99.90
13808;DHT22;40769;51.512;5.494;2023-07-13T12:40:58;26.30;99.90
13808;DHT22;40769;51.512;5.494;2023-07-13T12:43:25;26.60;99.90
13808;DHT22;40769;51.512;5.494;2023-07-13T12:46:05;26.80;99.90
13808;DHT22;40769;51.512;5.494;2023-07-13T12:48:41;27.10;99.90
13808;DHT22;40769;51.512;5.494;2023-07-13T12:51:13;27.50;99.90
13808;DHT22;40769;51.512;5.494;2023-07-13T12:53:42;27.90;99.90
13808;DHT22;40769;51.512;5.494;2023-07-13T12:56:27;28.20;99.90
13808;DHT22;40769;51.512;5.494;2023-07-13T12:59:01;28.40;99.90
13808;DHT22;40769;51.512;5.494;2023-07-13T13:01:28;28.50;99.90
13808;DHT22;40769;51.512;5.494;2023-07-13T13:03:55;28.50;99.90
13808;DHT22;40769;51.512;5.494;2023-07-13T13:06:27;28.40;99.90
13808;DHT22;40769;51.512;5.494;2023-07-13T13:08:58;28.00;99.90
13808;DHT22;40769;51.512;5.494;2023-07-13T13:11:26;28.10;99.90
13808;DHT22;40769;51.512;5.494;2023-07-13T13:13:52;27.90;99.90
13808;DHT22;40769;51.512;5.494;2023-07-13T13:16:50;27.70;99.90
13808;DHT22;40769;51.512;5.494;2023-07-13T13:19:23;27.40;99.90
13808;DHT22;40769;51.512;5.494;2023-07-13T13:21:49;27.20;99.90
13808;DHT22;40769;51.512;5.494;2023-07-13T13:24:21;27.00;99.90
13808;DHT22;40769;51.512;5.494;2023-07-13T13:26:47;26.70;99.90
13808;DHT22;40769;51.512;5.494;2023-07-13T13:29:22;26.50;99.90
13808;DHT22;40769;51.512;5.494;2023-07-13T13:31:50;26.30;99.90
13808;DHT22;40769;51.512;5.494;2023-07-13T13:34:17;26.20;99.90
13808;DHT22;40769;51.512;5.494;2023-07-13T13:36:44;26.00;99.90
13808;DHT22;40769;51.512;5.494;2023-07-13T13:39:23;25.90;99.90
13808;DHT22;40769;51.512;5.494;2023-07-13T13:41:53;25.80;99.90
13808;DHT22;40769;51.512;5.494;2023-07-13T13:44:21;25.80;99.90
13808;DHT22;40769;51.512;5.494;2023-07-13T13:46:49;25.90;99.90
13808;DHT22;40769;51.512;5.494;2023-07-13T13:49:19;26.00;99.90
13808;DHT22;40769;51.512;5.494;2023-07-13T13:51:45;26.10;99.90
13808;DHT22;40769;51.512;5.494;2023-07-13T13:54:15;26.20;99.90
13808;DHT22;40769;51.512;5.494;2023-07-13T13:56:48;26.30;99.90
13808;DHT22;40769;51.512;5.494;2023-07-13T13:59:14;26.40;99.90
13808;DHT22;40769;51.512;5.494;2023-07-13T14:01:45;26.50;99.90
13808;DHT22;40769;51.512;5.494;2023-07-13T14:04:17;26.50;99.90
13808;DHT22;40769;51.512;5.494;2023-07-13T14:06:44;26.40;99.90
13808;DHT22;40769;51.512;5.494;2023-07-13T14:09:12;26.30;99.90
13808;DHT22;40769;51.512;5.494;2023-07-13T14:11:39;26.30;99.90
13808;DHT22;40769;51.512;5.494;2023-07-13T14:14:16;26.30;99.90
13808;DHT22;40769;51.512;5.494;2023-07-13T14:16:46;26.30;99.90
13808;DHT22;40769;51.512;5.494;2023-07-13T14:19:18;26.30;99.90
13808;DHT22;40769;51.512;5.494;2023-07-13T14:21:44;26.30;99.90
13808;DHT22;40769;51.512;5.494;2023-07-13T14:24:10;26.30;99.90
13808;DHT22;40769;51.512;5.494;2023-07-13T14:26:39;26.40;99.90
13808;DHT22;40769;51.512;5.494;2023-07-13T14:29:12;26.40;99.90
13808;DHT22;40769;51.512;5.494;2023-07-13T14:31:39;26.40;99.90
13808;DHT22;40769;51.512;5.494;2023-07-13T14:34:04;26.50;99.90
13808;DHT22;40769;51.512;5.494;2023-07-13T14:36:33;26.60;99.90
13808;DHT22;40769;51.512;5.494;2023-07-13T14:39:13;26.70;99.90
13808;DHT22;40769;51.512;5.494;2023-07-13T14:41:39;26.70;99.90
13808;DHT22;40769;51.512;5.494;2023-07-13T14:44:11;26.90;99.90
13808;DHT22;40769;51.512;5.494;2023-07-13T14:46:38;27.20;99.90
13808;DHT22;40769;51.512;5.494;2023-07-13T14:49:07;27.40;99.90
13808;DHT22;40769;51.512;5.494;2023-07-13T14:51:35;27.60;99.90
13808;DHT22;40769;51.512;5.494;2023-07-13T14:54:04;27.80;99.90
13808;DHT22;40769;51.512;5.494;2023-07-13T14:56:34;28.00;99.90
13808;DHT22;40769;51.512;5.494;2023-07-13T14:58:59;28.00;99.90
13808;DHT22;40769;51.512;5.494;2023-07-13T15:01:26;28.20;99.90
13808;DHT22;40769;51.512;5.494;2023-07-13T15:03:53;28.20;99.90
13808;DHT22;40769;51.512;5.494;2023-07-13T15:06:19;28.20;99.90
13808;DHT22;40769;51.512;5.494;2023-07-13T15:08:46;28.20;99.90
13808;DHT22;40769;51.512;5.494;2023-07-13T15:11:12;28.10;99.90
13808;DHT22;40769;51.512;5.494;2023-07-13T15:13:38;28.10;99.90
13808;DHT22;40769;51.512;5.494;2023-07-13T15:16:16;28.00;99.90
13808;DHT22;40769;51.512;5.494;2023-07-13T15:18:44;27.80;99.90
13808;DHT22;40769;51.512;5.494;2023-07-13T15:21:13;27.70;99.90
13808;DHT22;40769;51.512;5.494;2023-07-13T15:23:40;27.60;99.90
13808;DHT22;40769;51.512;5.494;2023-07-13T15:26:13;27.50;99.90
13808;DHT22;40769;51.512;5.494;2023-07-13T15:28:40;27.30;99.90
13808;DHT22;40769;51.512;5.494;2023-07-13T15:31:21;27.20;99.90
13808;DHT22;40769;51.512;5.494;2023-07-13T15:33:48;27.00;99.90
13808;DHT22;40769;51.512;5.494;2023-07-13T15:36:16;26.20;99.90
13808;DHT22;40769;51.512;5.494;2023-07-13T15:38:46;26.80;99.90
13808;DHT22;40769;51.512;5.494;2023-07-13T15:41:25;26.80;99.90
13808;DHT22;40769;51.512;5.494;2023-07-13T15:43:54;26.80;99.90
13808;DHT22;40769;51.512;5.494;2023-07-13T15:46:22;26.80;99.90
13808;DHT22;40769;51.512;5.494;2023-07-13T15:48:49;26.80;99.90
13808;DHT22;40769;51.512;5.494;2023-07-13T15:53:53;27.00;99.90
13808;DHT22;40769;51.512;5.494;2023-07-13T15:56:28;27.00;99.90
13808;DHT22;40769;51.512;5.494;2023-07-13T15:58:57;27.00;99.90
13808;DHT22;40769;51.512;5.494;2023-07-13T16:01:24;27.00;99.90
13808;DHT22;40769;51.512;5.494;2023-07-13T16:03:50;26.90;99.90
13808;DHT22;40769;51.512;5.494;2023-07-13T16:06:22;26.90;99.90
13808;DHT22;40769;51.512;5.494;2023-07-13T16:08:49;26.90;99.90